sensor_id;sensor_type;location;lat;lon;timestamp;temperature;humidity
45060;DHT22;30799;49.060;9.312;2022-10-24T00:01:12;22.20;71.80
45060;DHT22;30799;49.060;9.312;2022-10-24T00:03:39;22.10;71.80
45060;DHT22;30799;49.060;9.312;2022-10-24T00:06:07;22.10;71.80
45060;DHT22;30799;49.060;9.312;2022-10-24T00:08:35;22.10;71.70
45060;DHT22;30799;49.060;9.312;2022-10-24T00:11:13;22.20;71.80
45060;DHT22;30799;49.060;9.312;2022-10-24T00:13:41;22.10;71.80
45060;DHT22;30799;49.060;9.312;2022-10-24T00:16:08;22.10;71.80
45060;DHT22;30799;49.060;9.312;2022-10-24T00:18:35;22.10;71.80
45060;DHT22;30799;49.060;9.312;2022-10-24T00:21:02;22.10;71.80
45060;DHT22;30799;49.060;9.312;2022-10-24T00:23:29;22.10;71.70
45060;DHT22;30799;49.060;9.312;2022-10-24T00:25:55;22.10;71.80
45060;DHT22;30799;49.060;9.312;2022-10-24T00:28:28;22.10;71.70
45060;DHT22;30799;49.060;9.312;2022-10-24T00:30:54;22.10;71.70
45060;DHT22;30799;49.060;9.312;2022-10-24T00:33:21;22.10;71.70
45060;DHT22;30799;49.060;9.312;2022-10-24T00:35:48;22.10;71.70
45060;DHT22;30799;49.060;9.312;2022-10-24T00:38:15;22.10;71.70
45060;DHT22;30799;49.060;9.312;2022-10-24T00:40:41;22.10;71.70
45060;DHT22;30799;49.060;9.312;2022-10-24T00:43:17;22.10;71.70
45060;DHT22;30799;49.060;9.312;2022-10-24T00:45:47;22.10;71.70
45060;DHT22;30799;49.060;9.312;2022-10-24T00:48:31;22.10;71.70
45060;DHT22;30799;49.060;9.312;2022-10-24T00:53:32;22.10;71.70
45060;DHT22;30799;49.060;9.312;2022-10-24T00:56:02;22.10;71.70
45060;DHT22;30799;49.060;9.312;2022-10-24T00:58:31;22.10;71.70
45060;DHT22;30799;49.060;9.312;2022-10-24T01:00:59;22.10;71.70
45060;DHT22;30799;49.060;9.312;2022-10-24T01:03:26;22.10;71.70
45060;DHT22;30799;49.060;9.312;2022-10-24T01:11:57;22.10;71.70
45060;DHT22;30799;49.060;9.312;2022-10-24T01:14:54;22.10;71.70
45060;DHT22;30799;49.060;9.312;2022-10-24T01:17:44;22.10;71.70
45060;DHT22;30799;49.060;9.312;2022-10-24T01:20:46;22.10;71.80
45060;DHT22;30799;49.060;9.312;2022-10-24T01:32:02;22.10;71.70
45060;DHT22;30799;49.060;9.312;2022-10-24T01:34:32;22.10;71.70
45060;DHT22;30799;49.060;9.312;2022-10-24T01:37:05;22.10;71.70
45060;DHT22;30799;49.060;9.312;2022-10-24T01:39:38;22.10;71.70
45060;DHT22;30799;49.060;9.312;2022-10-24T01:42:06;22.00;71.60
45060;DHT22;30799;49.060;9.312;2022-10-24T01:44:39;22.10;71.60
45060;DHT22;30799;49.060;9.312;2022-10-24T01:47:13;22.10;71.60
45060;DHT22;30799;49.060;9.312;2022-10-24T01:49:45;22.00;71.60
45060;DHT22;30799;49.060;9.312;2022-10-24T01:52:15;22.10;71.70
45060;DHT22;30799;49.060;9.312;2022-10-24T01:54:43;22.10;71.70
45060;DHT22;30799;49.060;9.312;2022-10-24T01:57:12;22.00;71.50
45060;DHT22;30799;49.060;9.312;2022-10-24T01:59:47;22.00;71.50
45060;DHT22;30799;49.060;9.312;2022-10-24T02:07:41;22.00;71.50
45060;DHT22;30799;49.060;9.312;2022-10-24T02:10:14;22.00;71.50
45060;DHT22;30799;49.060;9.312;2022-10-24T02:12:48;22.00;71.50
45060;DHT22;30799;49.060;9.312;2022-10-24T02:15:26;22.00;71.50
45060;DHT22;30799;49.060;9.312;2022-10-24T02:17:54;22.00;71.50
45060;DHT22;30799;49.060;9.312;2022-10-24T02:20:38;22.00;71.50
45060;DHT22;30799;49.060;9.312;2022-10-24T02:23:59;22.00;71.50
45060;DHT22;30799;49.060;9.312;2022-10-24T02:26:11;22.00;71.50
45060;DHT22;30799;49.060;9.312;2022-10-24T02:28:42;22.00;71.50
45060;DHT22;30799;49.060;9.312;2022-10-24T02:31:11;22.00;71.40
45060;DHT22;30799;49.060;9.312;2022-10-24T02:33:42;22.00;71.40
45060;DHT22;30799;49.060;9.312;2022-10-24T02:36:13;22.00;71.40
45060;DHT22;30799;49.060;9.312;2022-10-24T02:38:43;22.00;71.40
45060;DHT22;30799;49.060;9.312;2022-10-24T02:41:15;22.00;72.10
45060;DHT22;30799;49.060;9.312;2022-10-24T02:43:45;22.00;71.40
45060;DHT22;30799;49.060;9.312;2022-10-24T02:46:12;22.00;71.40
45060;DHT22;30799;49.060;9.312;2022-10-24T02:48:43;22.00;71.40
45060;DHT22;30799;49.060;9.312;2022-10-24T02:51:12;22.00;71.40
45060;DHT22;30799;49.060;9.312;2022-10-24T02:53:40;22.00;71.40
45060;DHT22;30799;49.060;9.312;2022-10-24T02:56:06;22.00;71.40
45060;DHT22;30799;49.060;9.312;2022-10-24T02:58:33;22.00;71.40
45060;DHT22;30799;49.060;9.312;2022-10-24T03:00:59;22.00;71.40
45060;DHT22;30799;49.060;9.312;2022-10-24T03:03:26;22.00;71.40
45060;DHT22;30799;49.060;9.312;2022-10-24T03:05:53;21.90;71.30
45060;DHT22;30799;49.060;9.312;2022-10-24T03:08:19;22.00;71.30
45060;DHT22;30799;49.060;9.312;2022-10-24T03:10:46;22.00;71.30
45060;DHT22;30799;49.060;9.312;2022-10-24T03:13:13;22.00;71.30
45060;DHT22;30799;49.060;9.312;2022-10-24T03:15:39;22.00;71.30
45060;DHT22;30799;49.060;9.312;2022-10-24T03:18:06;22.00;71.30
45060;DHT22;30799;49.060;9.312;2022-10-24T03:20:32;22.00;71.20
45060;DHT22;30799;49.060;9.312;2022-10-24T03:22:59;22.00;72.10
45060;DHT22;30799;49.060;9.312;2022-10-24T03:25:26;22.00;71.30
45060;DHT22;30799;49.060;9.312;2022-10-24T03:27:52;22.00;71.30
45060;DHT22;30799;49.060;9.312;2022-10-24T03:30:19;21.90;71.20
45060;DHT22;30799;49.060;9.312;2022-10-24T03:32:45;22.00;71.20
45060;DHT22;30799;49.060;9.312;2022-10-24T03:35:13;22.00;71.20
45060;DHT22;30799;49.060;9.312;2022-10-24T03:37:40;22.00;71.20
45060;DHT22;30799;49.060;9.312;2022-10-24T03:40:08;22.00;71.20
45060;DHT22;30799;49.060;9.312;2022-10-24T03:42:35;22.00;71.20
45060;DHT22;30799;49.060;9.312;2022-10-24T03:45:02;22.00;71.20
45060;DHT22;30799;49.060;9.312;2022-10-24T03:47:28;21.90;71.10
45060;DHT22;30799;49.060;9.312;2022-10-24T03:49:55;21.90;71.00
45060;DHT22;30799;49.060;9.312;2022-10-24T03:52:21;22.00;71.20
45060;DHT22;30799;49.060;9.312;2022-10-24T03:54:48;22.00;71.10
45060;DHT22;30799;49.060;9.312;2022-10-24T03:57:15;21.90;71.10
45060;DHT22;30799;49.060;9.312;2022-10-24T03:59:42;22.00;71.20
45060;DHT22;30799;49.060;9.312;2022-10-24T04:02:08;21.90;71.10
45060;DHT22;30799;49.060;9.312;2022-10-24T04:04:35;21.90;71.00
45060;DHT22;30799;49.060;9.312;2022-10-24T04:07:02;21.90;71.00
45060;DHT22;30799;49.060;9.312;2022-10-24T04:09:31;21.90;71.00
45060;DHT22;30799;49.060;9.312;2022-10-24T04:11:57;22.00;71.10
45060;DHT22;30799;49.060;9.312;2022-10-24T04:14:24;22.00;71.10
45060;DHT22;30799;49.060;9.312;2022-10-24T04:16:50;21.90;71.10
45060;DHT22;30799;49.060;9.312;2022-10-24T04:19:17;21.90;71.20
45060;DHT22;30799;49.060;9.312;2022-10-24T04:21:44;21.90;71.10
45060;DHT22;30799;49.060;9.312;2022-10-24T04:24:12;21.90;71.00
45060;DHT22;30799;49.060;9.312;2022-10-24T04:26:39;21.90;71.00
45060;DHT22;30799;49.060;9.312;2022-10-24T04:29:06;21.90;71.00
45060;DHT22;30799;49.060;9.312;2022-10-24T04:31:32;22.00;71.10
45060;DHT22;30799;49.060;9.312;2022-10-24T04:33:59;21.90;71.10
45060;DHT22;30799;49.060;9.312;2022-10-24T04:36:26;21.90;71.10
45060;DHT22;30799;49.060;9.312;2022-10-24T04:38:52;21.90;71.10
45060;DHT22;30799;49.060;9.312;2022-10-24T04:41:19;21.90;71.10
45060;DHT22;30799;49.060;9.312;2022-10-24T04:43:45;21.90;71.90
45060;DHT22;30799;49.060;9.312;2022-10-24T04:46:12;21.90;71.10
45060;DHT22;30799;49.060;9.312;2022-10-24T04:48:39;21.90;71.10
45060;DHT22;30799;49.060;9.312;2022-10-24T04:51:05;21.90;71.10
45060;DHT22;30799;49.060;9.312;2022-10-24T04:53:32;21.90;71.00
45060;DHT22;30799;49.060;9.312;2022-10-24T04:55:58;21.80;66.20
45060;DHT22;30799;49.060;9.312;2022-10-24T04:58:25;21.30;63.20
45060;DHT22;30799;49.060;9.312;2022-10-24T05:00:52;20.90;63.40
45060;DHT22;30799;49.060;9.312;2022-10-24T05:03:19;20.60;63.40
45060;DHT22;30799;49.060;9.312;2022-10-24T05:05:46;20.50;63.70
45060;DHT22;30799;49.060;9.312;2022-10-24T05:08:14;20.40;63.80
45060;DHT22;30799;49.060;9.312;2022-10-24T05:10:40;20.30;63.70
45060;DHT22;30799;49.060;9.312;2022-10-24T05:13:07;20.30;64.00
45060;DHT22;30799;49.060;9.312;2022-10-24T05:15:34;20.30;63.70
45060;DHT22;30799;49.060;9.312;2022-10-24T05:18:01;20.20;63.50
45060;DHT22;30799;49.060;9.312;2022-10-24T05:20:28;20.20;63.70
45060;DHT22;30799;49.060;9.312;2022-10-24T05:22:55;20.20;63.70
45060;DHT22;30799;49.060;9.312;2022-10-24T05:25:22;20.20;63.60
45060;DHT22;30799;49.060;9.312;2022-10-24T05:27:48;20.20;64.00
45060;DHT22;30799;49.060;9.312;2022-10-24T05:30:15;20.60;65.10
45060;DHT22;30799;49.060;9.312;2022-10-24T05:32:42;20.90;65.10
45060;DHT22;30799;49.060;9.312;2022-10-24T05:35:09;21.20;65.50
45060;DHT22;30799;49.060;9.312;2022-10-24T05:37:36;21.40;66.50
45060;DHT22;30799;49.060;9.312;2022-10-24T05:40:06;21.40;66.30
45060;DHT22;30799;49.060;9.312;2022-10-24T05:42:33;21.50;66.90
45060;DHT22;30799;49.060;9.312;2022-10-24T05:44:59;21.50;67.90
45060;DHT22;30799;49.060;9.312;2022-10-24T05:47:26;21.50;69.10
45060;DHT22;30799;49.060;9.312;2022-10-24T05:49:54;21.50;70.90
45060;DHT22;30799;49.060;9.312;2022-10-24T05:52:21;21.50;71.30
45060;DHT22;30799;49.060;9.312;2022-10-24T05:54:48;21.50;71.10
45060;DHT22;30799;49.060;9.312;2022-10-24T05:57:32;21.50;71.30
45060;DHT22;30799;49.060;9.312;2022-10-24T05:59:58;21.60;71.00
45060;DHT22;30799;49.060;9.312;2022-10-24T06:02:26;21.60;71.50
45060;DHT22;30799;49.060;9.312;2022-10-24T06:04:52;21.60;71.00
45060;DHT22;30799;49.060;9.312;2022-10-24T06:07:21;21.60;71.00
45060;DHT22;30799;49.060;9.312;2022-10-24T06:09:48;21.60;70.90
45060;DHT22;30799;49.060;9.312;2022-10-24T06:12:15;21.60;71.10
45060;DHT22;30799;49.060;9.312;2022-10-24T06:14:41;21.60;70.80
45060;DHT22;30799;49.060;9.312;2022-10-24T06:17:08;21.60;70.60
45060;DHT22;30799;49.060;9.312;2022-10-24T06:19:35;21.60;70.70
45060;DHT22;30799;49.060;9.312;2022-10-24T06:22:03;21.60;70.70
45060;DHT22;30799;49.060;9.312;2022-10-24T06:24:30;21.60;70.70
45060;DHT22;30799;49.060;9.312;2022-10-24T06:26:59;21.60;70.70
45060;DHT22;30799;49.060;9.312;2022-10-24T06:29:25;21.60;70.70
45060;DHT22;30799;49.060;9.312;2022-10-24T06:31:52;21.60;70.90
45060;DHT22;30799;49.060;9.312;2022-10-24T06:34:18;21.60;71.00
45060;DHT22;30799;49.060;9.312;2022-10-24T06:36:50;21.60;71.20
45060;DHT22;30799;49.060;9.312;2022-10-24T06:39:16;21.60;71.60
45060;DHT22;30799;49.060;9.312;2022-10-24T06:41:43;21.60;71.20
45060;DHT22;30799;49.060;9.312;2022-10-24T06:44:10;21.60;71.10
45060;DHT22;30799;49.060;9.312;2022-10-24T06:46:37;21.60;71.30
45060;DHT22;30799;49.060;9.312;2022-10-24T06:49:03;21.60;71.20
45060;DHT22;30799;49.060;9.312;2022-10-24T06:51:30;21.60;71.20
45060;DHT22;30799;49.060;9.312;2022-10-24T06:53:57;21.60;71.20
45060;DHT22;30799;49.060;9.312;2022-10-24T06:56:24;21.60;71.30
45060;DHT22;30799;49.060;9.312;2022-10-24T06:58:51;21.60;71.30
45060;DHT22;30799;49.060;9.312;2022-10-24T07:01:20;21.60;71.30
45060;DHT22;30799;49.060;9.312;2022-10-24T07:03:47;21.60;71.40
45060;DHT22;30799;49.060;9.312;2022-10-24T07:06:23;21.70;71.50
45060;DHT22;30799;49.060;9.312;2022-10-24T07:08:51;21.70;71.50
45060;DHT22;30799;49.060;9.312;2022-10-24T07:11:18;21.60;71.40
45060;DHT22;30799;49.060;9.312;2022-10-24T07:13:45;21.60;71.40
45060;DHT22;30799;49.060;9.312;2022-10-24T07:16:13;21.70;71.40
45060;DHT22;30799;49.060;9.312;2022-10-24T07:18:40;21.70;71.40
45060;DHT22;30799;49.060;9.312;2022-10-24T07:21:10;21.70;72.00
45060;DHT22;30799;49.060;9.312;2022-10-24T07:23:37;21.70;71.90
45060;DHT22;30799;49.060;9.312;2022-10-24T07:26:06;21.70;71.60
45060;DHT22;30799;49.060;9.312;2022-10-24T07:28:33;21.70;71.50
45060;DHT22;30799;49.060;9.312;2022-10-24T07:31:01;21.70;71.70
45060;DHT22;30799;49.060;9.312;2022-10-24T07:33:27;21.70;71.50
45060;DHT22;30799;49.060;9.312;2022-10-24T07:35:54;21.70;71.70
45060;DHT22;30799;49.060;9.312;2022-10-24T07:38:21;21.70;71.60
45060;DHT22;30799;49.060;9.312;2022-10-24T07:40:48;21.70;71.50
45060;DHT22;30799;49.060;9.312;2022-10-24T07:43:15;21.70;71.60
45060;DHT22;30799;49.060;9.312;2022-10-24T07:45:43;21.70;71.60
45060;DHT22;30799;49.060;9.312;2022-10-24T07:48:17;21.70;71.50
45060;DHT22;30799;49.060;9.312;2022-10-24T07:50:45;21.70;71.50
45060;DHT22;30799;49.060;9.312;2022-10-24T07:53:13;21.70;71.60
45060;DHT22;30799;49.060;9.312;2022-10-24T07:55:41;21.70;71.60
45060;DHT22;30799;49.060;9.312;2022-10-24T07:58:09;21.70;71.50
45060;DHT22;30799;49.060;9.312;2022-10-24T08:00:36;21.70;71.70
45060;DHT22;30799;49.060;9.312;2022-10-24T08:03:10;21.70;71.60
45060;DHT22;30799;49.060;9.312;2022-10-24T08:05:38;21.70;71.60
45060;DHT22;30799;49.060;9.312;2022-10-24T08:08:05;21.60;71.50
45060;DHT22;30799;49.060;9.312;2022-10-24T08:10:52;21.70;71.60
45060;DHT22;30799;49.060;9.312;2022-10-24T08:13:18;21.70;71.60
45060;DHT22;30799;49.060;9.312;2022-10-24T08:15:45;21.70;71.70
45060;DHT22;30799;49.060;9.312;2022-10-24T08:18:12;21.70;71.70
45060;DHT22;30799;49.060;9.312;2022-10-24T08:20:39;21.70;71.60
45060;DHT22;30799;49.060;9.312;2022-10-24T08:23:05;21.70;71.70
45060;DHT22;30799;49.060;9.312;2022-10-24T08:25:32;21.70;71.70
45060;DHT22;30799;49.060;9.312;2022-10-24T08:27:59;21.70;71.70
45060;DHT22;30799;49.060;9.312;2022-10-24T08:30:29;21.70;71.70
45060;DHT22;30799;49.060;9.312;2022-10-24T08:32:56;21.70;71.70
45060;DHT22;30799;49.060;9.312;2022-10-24T08:35:22;21.70;71.70
45060;DHT22;30799;49.060;9.312;2022-10-24T08:37:49;21.70;71.60
45060;DHT22;30799;49.060;9.312;2022-10-24T08:40:17;21.70;71.70
45060;DHT22;30799;49.060;9.312;2022-10-24T08:42:45;21.70;71.60
45060;DHT22;30799;49.060;9.312;2022-10-24T08:48:20;21.70;71.70
45060;DHT22;30799;49.060;9.312;2022-10-24T08:50:50;21.70;71.60
45060;DHT22;30799;49.060;9.312;2022-10-24T08:53:23;21.70;71.50
45060;DHT22;30799;49.060;9.312;2022-10-24T08:55:53;21.70;71.50
45060;DHT22;30799;49.060;9.312;2022-10-24T09:00:54;21.70;71.50
45060;DHT22;30799;49.060;9.312;2022-10-24T09:03:23;21.70;72.30
45060;DHT22;30799;49.060;9.312;2022-10-24T09:06:18;21.70;71.60
45060;DHT22;30799;49.060;9.312;2022-10-24T09:11:35;21.70;71.50
45060;DHT22;30799;49.060;9.312;2022-10-24T09:14:20;21.70;71.60
45060;DHT22;30799;49.060;9.312;2022-10-24T09:16:51;21.70;71.50
45060;DHT22;30799;49.060;9.312;2022-10-24T09:19:21;21.70;71.50
45060;DHT22;30799;49.060;9.312;2022-10-24T09:21:50;21.70;71.50
45060;DHT22;30799;49.060;9.312;2022-10-24T09:26:50;21.70;71.40
45060;DHT22;30799;49.060;9.312;2022-10-24T09:29:16;21.70;71.30
45060;DHT22;30799;49.060;9.312;2022-10-24T09:31:43;21.70;71.30
45060;DHT22;30799;49.060;9.312;2022-10-24T09:34:10;21.70;71.40
45060;DHT22;30799;49.060;9.312;2022-10-24T09:36:38;21.70;71.40
45060;DHT22;30799;49.060;9.312;2022-10-24T09:39:25;21.70;71.40
45060;DHT22;30799;49.060;9.312;2022-10-24T09:41:53;21.70;71.40
45060;DHT22;30799;49.060;9.312;2022-10-24T09:44:39;21.70;71.50
45060;DHT22;30799;49.060;9.312;2022-10-24T09:47:24;21.70;71.40
45060;DHT22;30799;49.060;9.312;2022-10-24T09:49:51;21.70;71.40
45060;DHT22;30799;49.060;9.312;2022-10-24T09:52:23;21.70;71.40
45060;DHT22;30799;49.060;9.312;2022-10-24T09:55:16;21.70;71.40
45060;DHT22;30799;49.060;9.312;2022-10-24T09:57:43;21.70;71.30
45060;DHT22;30799;49.060;9.312;2022-10-24T10:00:27;21.70;71.40
45060;DHT22;30799;49.060;9.312;2022-10-24T10:03:19;21.70;71.30
45060;DHT22;30799;49.060;9.312;2022-10-24T10:05:51;21.70;71.40
45060;DHT22;30799;49.060;9.312;2022-10-24T10:08:37;21.70;71.40
45060;DHT22;30799;49.060;9.312;2022-10-24T10:11:10;21.70;71.40
45060;DHT22;30799;49.060;9.312;2022-10-24T10:13:45;21.70;71.40
45060;DHT22;30799;49.060;9.312;2022-10-24T10:16:32;21.70;71.30
45060;DHT22;30799;49.060;9.312;2022-10-24T10:19:05;21.70;71.20
45060;DHT22;30799;49.060;9.312;2022-10-24T10:27:01;21.70;71.10
45060;DHT22;30799;49.060;9.312;2022-10-24T10:29:28;21.70;71.20
45060;DHT22;30799;49.060;9.312;2022-10-24T10:32:04;21.70;71.20
45060;DHT22;30799;49.060;9.312;2022-10-24T10:34:39;21.70;71.20
45060;DHT22;30799;49.060;9.312;2022-10-24T10:37:33;21.70;71.20
45060;DHT22;30799;49.060;9.312;2022-10-24T10:40:30;21.70;71.20
45060;DHT22;30799;49.060;9.312;2022-10-24T10:48:57;21.70;71.20
45060;DHT22;30799;49.060;9.312;2022-10-24T10:51:42;21.70;71.20
45060;DHT22;30799;49.060;9.312;2022-10-24T10:57:07;21.70;71.10
45060;DHT22;30799;49.060;9.312;2022-10-24T10:59:52;21.70;71.20
45060;DHT22;30799;49.060;9.312;2022-10-24T11:02:39;21.70;71.20
45060;DHT22;30799;49.060;9.312;2022-10-24T11:10:45;21.70;71.20
45060;DHT22;30799;49.060;9.312;2022-10-24T11:13:21;21.70;71.20
45060;DHT22;30799;49.060;9.312;2022-10-24T11:15:52;21.70;71.20
45060;DHT22;30799;49.060;9.312;2022-10-24T11:18:25;21.70;71.20
45060;DHT22;30799;49.060;9.312;2022-10-24T11:21:07;21.70;71.20
45060;DHT22;30799;49.060;9.312;2022-10-24T11:26:25;21.70;71.30
45060;DHT22;30799;49.060;9.312;2022-10-24T11:32:06;21.70;71.20
45060;DHT22;30799;49.060;9.312;2022-10-24T11:37:18;21.70;71.30
45060;DHT22;30799;49.060;9.312;2022-10-24T11:45:15;21.70;71.30
45060;DHT22;30799;49.060;9.312;2022-10-24T11:48:01;21.70;71.40
45060;DHT22;30799;49.060;9.312;2022-10-24T11:50:54;21.70;71.30
45060;DHT22;30799;49.060;9.312;2022-10-24T11:53:46;21.70;71.30
45060;DHT22;30799;49.060;9.312;2022-10-24T11:59:05;21.70;71.40
45060;DHT22;30799;49.060;9.312;2022-10-24T12:04:05;21.70;71.30
45060;DHT22;30799;49.060;9.312;2022-10-24T12:07:03;21.70;71.30
45060;DHT22;30799;49.060;9.312;2022-10-24T12:12:56;21.70;71.30
45060;DHT22;30799;49.060;9.312;2022-10-24T12:18:32;21.70;71.30
45060;DHT22;30799;49.060;9.312;2022-10-24T12:21:04;21.70;71.30
45060;DHT22;30799;49.060;9.312;2022-10-24T12:23:31;21.70;71.40
45060;DHT22;30799;49.060;9.312;2022-10-24T12:26:25;21.70;71.30
45060;DHT22;30799;49.060;9.312;2022-10-24T12:29:04;21.70;71.20
45060;DHT22;30799;49.060;9.312;2022-10-24T12:31:37;21.70;71.20
45060;DHT22;30799;49.060;9.312;2022-10-24T12:39:47;21.70;71.20
45060;DHT22;30799;49.060;9.312;2022-10-24T12:44:47;21.70;71.10
45060;DHT22;30799;49.060;9.312;2022-10-24T12:49:54;21.70;71.10
45060;DHT22;30799;49.060;9.312;2022-10-24T12:54:58;21.70;71.10
45060;DHT22;30799;49.060;9.312;2022-10-24T12:57:36;21.70;71.20
45060;DHT22;30799;49.060;9.312;2022-10-24T13:00:25;21.70;71.20
45060;DHT22;30799;49.060;9.312;2022-10-24T13:03:13;21.70;71.20
45060;DHT22;30799;49.060;9.312;2022-10-24T13:11:38;21.70;71.20
45060;DHT22;30799;49.060;9.312;2022-10-24T13:19:32;21.70;71.10
45060;DHT22;30799;49.060;9.312;2022-10-24T13:22:00;21.70;71.10
45060;DHT22;30799;49.060;9.312;2022-10-24T13:24:30;21.70;71.20
45060;DHT22;30799;49.060;9.312;2022-10-24T13:37:24;21.00;68.50
45060;DHT22;30799;49.060;9.312;2022-10-24T13:39:55;21.30;68.40
45060;DHT22;30799;49.060;9.312;2022-10-24T13:45:28;21.60;69.20
45060;DHT22;30799;49.060;9.312;2022-10-24T13:48:05;21.70;69.10
45060;DHT22;30799;49.060;9.312;2022-10-24T13:50:36;21.70;69.20
45060;DHT22;30799;49.060;9.312;2022-10-24T13:53:17;21.80;69.10
45060;DHT22;30799;49.060;9.312;2022-10-24T13:55:59;21.80;69.20
45060;DHT22;30799;49.060;9.312;2022-10-24T13:58:35;21.80;69.20
45060;DHT22;30799;49.060;9.312;2022-10-24T14:01:19;21.80;69.10
45060;DHT22;30799;49.060;9.312;2022-10-24T14:03:47;21.90;69.60
45060;DHT22;30799;49.060;9.312;2022-10-24T14:06:15;21.90;69.40
45060;DHT22;30799;49.060;9.312;2022-10-24T14:08:48;21.90;69.50
45060;DHT22;30799;49.060;9.312;2022-10-24T14:11:31;21.90;69.50
45060;DHT22;30799;49.060;9.312;2022-10-24T14:14:00;22.00;69.70
45060;DHT22;30799;49.060;9.312;2022-10-24T14:16:33;22.00;69.90
45060;DHT22;30799;49.060;9.312;2022-10-24T14:21:55;22.00;69.70
45060;DHT22;30799;49.060;9.312;2022-10-24T14:24:22;22.00;69.90
45060;DHT22;30799;49.060;9.312;2022-10-24T14:26:49;22.00;69.90
45060;DHT22;30799;49.060;9.312;2022-10-24T14:29:22;22.10;69.90
45060;DHT22;30799;49.060;9.312;2022-10-24T14:32:12;22.00;70.00
45060;DHT22;30799;49.060;9.312;2022-10-24T14:34:39;22.10;70.30
45060;DHT22;30799;49.060;9.312;2022-10-24T14:37:12;22.00;70.10
45060;DHT22;30799;49.060;9.312;2022-10-24T14:39:40;22.00;70.30
45060;DHT22;30799;49.060;9.312;2022-10-24T14:42:14;22.00;70.40
45060;DHT22;30799;49.060;9.312;2022-10-24T14:44:41;22.10;70.60
45060;DHT22;30799;49.060;9.312;2022-10-24T14:47:29;22.10;70.80
45060;DHT22;30799;49.060;9.312;2022-10-24T14:49:57;22.10;71.10
45060;DHT22;30799;49.060;9.312;2022-10-24T14:52:26;22.10;71.20
45060;DHT22;30799;49.060;9.312;2022-10-24T14:55:18;22.20;72.20
45060;DHT22;30799;49.060;9.312;2022-10-24T14:57:50;22.20;71.40
45060;DHT22;30799;49.060;9.312;2022-10-24T15:00:26;22.20;71.60
45060;DHT22;30799;49.060;9.312;2022-10-24T15:02:56;22.20;72.10
45060;DHT22;30799;49.060;9.312;2022-10-24T15:05:26;22.30;72.00
45060;DHT22;30799;49.060;9.312;2022-10-24T15:10:41;22.30;71.50
45060;DHT22;30799;49.060;9.312;2022-10-24T15:13:18;22.30;72.40
45060;DHT22;30799;49.060;9.312;2022-10-24T15:15:57;22.30;72.30
45060;DHT22;30799;49.060;9.312;2022-10-24T15:18:27;22.30;72.40
45060;DHT22;30799;49.060;9.312;2022-10-24T15:21:03;22.30;73.30
45060;DHT22;30799;49.060;9.312;2022-10-24T15:23:33;22.30;72.70
45060;DHT22;30799;49.060;9.312;2022-10-24T15:29:03;22.40;72.70
45060;DHT22;30799;49.060;9.312;2022-10-24T15:31:39;22.40;72.80
45060;DHT22;30799;49.060;9.312;2022-10-24T15:34:06;22.40;72.80
45060;DHT22;30799;49.060;9.312;2022-10-24T15:36:37;22.40;72.90
45060;DHT22;30799;49.060;9.312;2022-10-24T15:39:10;22.40;73.00
45060;DHT22;30799;49.060;9.312;2022-10-24T15:41:38;22.40;73.00
45060;DHT22;30799;49.060;9.312;2022-10-24T15:46:39;22.40;73.20
45060;DHT22;30799;49.060;9.312;2022-10-24T15:49:05;22.40;73.20
45060;DHT22;30799;49.060;9.312;2022-10-24T15:51:32;22.40;73.20
45060;DHT22;30799;49.060;9.312;2022-10-24T15:54:00;22.40;73.30
45060;DHT22;30799;49.060;9.312;2022-10-24T15:56:26;22.40;73.00
45060;DHT22;30799;49.060;9.312;2022-10-24T15:58:53;22.40;73.80
45060;DHT22;30799;49.060;9.312;2022-10-24T16:01:33;22.40;73.20
45060;DHT22;30799;49.060;9.312;2022-10-24T16:04:07;22.40;73.40
45060;DHT22;30799;49.060;9.312;2022-10-24T16:06:35;22.40;73.30
45060;DHT22;30799;49.060;9.312;2022-10-24T16:09:02;22.40;73.40
45060;DHT22;30799;49.060;9.312;2022-10-24T16:11:29;22.40;73.50
45060;DHT22;30799;49.060;9.312;2022-10-24T16:13:57;22.40;73.50
45060;DHT22;30799;49.060;9.312;2022-10-24T16:16:24;22.40;73.40
45060;DHT22;30799;49.060;9.312;2022-10-24T16:18:51;22.40;73.40
45060;DHT22;30799;49.060;9.312;2022-10-24T16:21:20;22.40;73.50
45060;DHT22;30799;49.060;9.312;2022-10-24T16:23:47;22.40;73.50
45060;DHT22;30799;49.060;9.312;2022-10-24T16:26:14;22.40;73.50
45060;DHT22;30799;49.060;9.312;2022-10-24T16:28:41;22.40;73.50
45060;DHT22;30799;49.060;9.312;2022-10-24T16:31:09;22.40;73.60
45060;DHT22;30799;49.060;9.312;2022-10-24T16:33:36;22.40;73.50
45060;DHT22;30799;49.060;9.312;2022-10-24T16:36:03;21.90;64.80
45060;DHT22;30799;49.060;9.312;2022-10-24T16:38:30;21.30;64.60
45060;DHT22;30799;49.060;9.312;2022-10-24T16:40:56;21.00;65.10
45060;DHT22;30799;49.060;9.312;2022-10-24T16:43:23;20.70;65.30
45060;DHT22;30799;49.060;9.312;2022-10-24T16:46:17;20.60;65.70
45060;DHT22;30799;49.060;9.312;2022-10-24T16:48:44;20.50;65.90
45060;DHT22;30799;49.060;9.312;2022-10-24T16:51:12;20.50;66.10
45060;DHT22;30799;49.060;9.312;2022-10-24T16:53:39;20.40;66.30
45060;DHT22;30799;49.060;9.312;2022-10-24T16:56:09;20.40;66.00
45060;DHT22;30799;49.060;9.312;2022-10-24T16:58:37;20.30;66.30
45060;DHT22;30799;49.060;9.312;2022-10-24T17:01:07;20.30;66.40
45060;DHT22;30799;49.060;9.312;2022-10-24T17:03:34;20.30;66.30
45060;DHT22;30799;49.060;9.312;2022-10-24T17:06:01;20.20;66.10
45060;DHT22;30799;49.060;9.312;2022-10-24T17:08:28;20.30;67.30
45060;DHT22;30799;49.060;9.312;2022-10-24T17:10:56;20.20;66.10
45060;DHT22;30799;49.060;9.312;2022-10-24T17:13:23;20.10;66.30
45060;DHT22;30799;49.060;9.312;2022-10-24T17:15:50;20.10;66.50
45060;DHT22;30799;49.060;9.312;2022-10-24T17:18:17;20.10;67.20
45060;DHT22;30799;49.060;9.312;2022-10-24T17:20:49;20.50;68.70
45060;DHT22;30799;49.060;9.312;2022-10-24T17:23:18;20.90;68.30
45060;DHT22;30799;49.060;9.312;2022-10-24T17:25:46;21.10;67.60
45060;DHT22;30799;49.060;9.312;2022-10-24T17:28:14;21.30;68.80
45060;DHT22;30799;49.060;9.312;2022-10-24T17:30:41;21.40;68.30
45060;DHT22;30799;49.060;9.312;2022-10-24T17:33:10;21.40;68.50
45060;DHT22;30799;49.060;9.312;2022-10-24T17:35:40;21.50;68.10
45060;DHT22;30799;49.060;9.312;2022-10-24T17:41:06;21.60;68.60
45060;DHT22;30799;49.060;9.312;2022-10-24T17:43:35;21.60;68.80
45060;DHT22;30799;49.060;9.312;2022-10-24T17:46:01;21.70;69.00
45060;DHT22;30799;49.060;9.312;2022-10-24T17:48:28;21.70;69.60
45060;DHT22;30799;49.060;9.312;2022-10-24T17:50:56;21.70;69.80
45060;DHT22;30799;49.060;9.312;2022-10-24T17:53:23;21.70;69.80
45060;DHT22;30799;49.060;9.312;2022-10-24T17:55:50;21.80;70.10
45060;DHT22;30799;49.060;9.312;2022-10-24T17:58:17;21.80;70.30
45060;DHT22;30799;49.060;9.312;2022-10-24T18:00:44;21.90;71.20
45060;DHT22;30799;49.060;9.312;2022-10-24T18:03:11;21.90;70.80